Time;durP1;ratioP1;P1;durP2;ratioP2;P2;SDS_P1;SDS_P2;PMS_P1;PMS_P2;Temp;Humidity;BMP_temperature;BMP_pressure;BME280_temperature;BME280_humidity;BME280_pressure;Samples;Min_cycle;Max_cycle;Signal;HPM_P1;HPM_P2
2022/12/31 00:00:40;;;;;;;0.10;0.10;;;15.30;99.90;;;;;;5046250;28;20017;-74
2022/12/31 00:03:08;;;;;;;0.10;0.10;;;15.80;99.90;;;;;;5046832;28;20036;-74
2022/12/31 00:05:35;;;;;;;0.00;0.00;;;15.90;99.90;;;;;;5047142;28;20021;-74
2022/12/31 00:08:01;;;;;;;0.10;0.10;;;16.00;99.90;;;;;;5048025;28;20017;-74
2022/12/31 00:10:27;;;;;;;0.25;0.17;;;16.00;99.90;;;;;;5047069;28;20547;-74
2022/12/31 00:12:54;;;;;;;0.10;0.10;;;;;;;;;;5047231;28;20172;-74
2022/12/31 00:15:19;;;;;;;0.30;0.30;;;16.10;99.90;;;;;;5047063;28;20434;-74
2022/12/31 00:17:45;;;;;;;0.08;0.08;;;;;;;;;;5046738;28;20290;-74
2022/12/31 00:20:11;;;;;;;0.20;0.15;;;14.90;99.90;;;;;;5047734;28;20576;-74
2022/12/31 00:22:37;;;;;;;0.10;0.10;;;;;;;;;;5062377;28;20041;-74
2022/12/31 00:25:03;;;;;;;0.38;0.13;;;16.00;99.90;;;;;;5046725;28;20029;-74
2022/12/31 00:27:30;;;;;;;0.15;0.15;;;15.80;99.90;;;;;;5046611;28;20031;-73
2022/12/31 00:29:56;;;;;;;0.10;0.10;;;;;;;;;;5046523;28;20029;-74
2022/12/31 00:32:23;;;;;;;0.17;0.10;;;16.00;99.90;;;;;;5046917;28;20405;-75
2022/12/31 00:34:49;;;;;;;3.05;0.30;;;;;;;;;;5047029;28;20025;-75
2022/12/31 00:37:14;;;;;;;0.52;0.20;;;15.80;99.90;;;;;;5062286;28;20037;-75
2022/12/31 00:39:40;;;;;;;1.65;0.10;;;;;;;;;;5046361;28;20052;-74
2022/12/31 00:42:06;;;;;;;0.10;0.10;;;;;;;;;;5062196;28;20032;-74
2022/12/31 00:44:32;;;;;;;0.10;0.10;;;15.60;99.90;;;;;;5047967;28;20788;-73
2022/12/31 00:46:58;;;;;;;0.25;0.20;;;13.70;99.90;;;;;;5048565;28;20059;-74
2022/12/31 00:49:23;;;;;;;0.17;0.17;;;15.60;99.90;;;;;;5064323;28;20040;-74
2022/12/31 00:51:49;;;;;;;0.10;0.10;;;15.50;99.90;;;;;;5049183;28;20381;-74
2022/12/31 00:54:15;;;;;;;0.00;0.00;;;;;;;;;;5046868;28;20087;-74
2022/12/31 00:56:41;;;;;;;0.65;0.10;;;15.60;99.90;;;;;;5047530;28;20076;-75
2022/12/31 00:59:07;;;;;;;0.32;0.20;;;;;;;;;;5047193;28;20447;-74
2022/12/31 01:01:36;;;;;;;0.52;0.10;;;15.60;99.90;;;;;;5045961;28;20029;-74
2022/12/31 01:04:08;;;;;;;0.20;0.20;;;15.60;99.90;;;;;;5046425;28;20078;-74
2022/12/31 01:06:34;;;;;;;0.13;0.10;;;15.60;99.90;;;;;;5046465;28;20064;-74
2022/12/31 01:08:59;;;;;;;0.10;0.10;;;15.60;99.90;;;;;;5046580;28;20381;-73
2022/12/31 01:11:28;;;;;;;0.10;0.10;;;15.60;99.90;;;;;;5046922;28;20037;-74
2022/12/31 01:14:09;;;;;;;0.10;0.10;;;15.70;99.90;;;;;;5047434;28;20086;-74
2022/12/31 01:16:44;;;;;;;0.00;0.00;;;15.70;99.90;;;;;;5049125;28;20504;-74
2022/12/31 01:19:22;;;;;;;0.00;0.00;;;15.70;99.90;;;;;;5053380;28;20147;-74
2022/12/31 01:21:49;;;;;;;0.00;0.00;;;15.40;99.90;;;;;;5052644;28;20389;-74
2022/12/31 01:24:15;;;;;;;0.10;0.10;;;15.50;99.90;;;;;;5053723;28;20021;-74
2022/12/31 01:26:42;;;;;;;0.10;0.10;;;15.10;99.90;;;;;;5053943;28;20047;-74
2022/12/31 01:29:09;;;;;;;0.17;0.17;;;15.20;99.90;;;;;;5053412;28;20029;-74
2022/12/31 01:31:36;;;;;;;0.10;0.10;;;15.00;99.90;;;;;;5053734;28;20037;-74
2022/12/31 01:34:02;;;;;;;0.05;0.05;;;15.00;99.90;;;;;;5053123;28;20021;-74
2022/12/31 01:36:29;;;;;;;0.13;0.13;;;;;;;;;;5051819;28;20497;-74
2022/12/31 01:38:57;;;;;;;0.17;0.10;;;14.60;99.90;;;;;;5050707;28;20302;-74
2022/12/31 01:41:26;;;;;;;0.20;0.20;;;14.50;99.90;;;;;;5050652;28;20071;-73
2022/12/31 01:43:55;;;;;;;0.10;0.10;;;14.30;99.90;;;;;;5051596;28;20021;-74
2022/12/31 01:46:42;;;;;;;0.22;0.10;;;14.10;99.90;;;;;;5050492;28;20470;-74
2022/12/31 01:49:28;;;;;;;1.35;0.13;;;14.60;99.90;;;;;;5050545;28;20033;-74
2022/12/31 01:51:56;;;;;;;0.13;0.13;;;;;;;;;;5050072;28;20105;-74
2022/12/31 01:54:26;;;;;;;0.10;0.10;;;14.10;99.90;;;;;;5050207;28;20029;-74
2022/12/31 01:56:54;;;;;;;0.52;0.10;;;14.00;99.90;;;;;;5051690;28;20048;-75
2022/12/31 01:59:21;;;;;;;0.20;0.20;;;14.00;99.90;;;;;;5050294;28;20037;-74
2022/12/31 02:01:51;;;;;;;0.10;0.10;;;;;;;;;;5049387;28;20110;-74
2022/12/31 02:04:19;;;;;;;0.10;0.10;;;14.00;99.90;;;;;;5049683;28;20553;-74
2022/12/31 02:06:50;;;;;;;0.20;0.20;;;13.60;99.90;;;;;;5049946;28;20516;-75
2022/12/31 02:09:16;;;;;;;0.45;0.35;;;13.80;99.90;;;;;;5049924;28;20855;-74
2022/12/31 02:11:43;;;;;;;0.10;0.10;;;;;;;;;;5048207;28;20123;-74
2022/12/31 02:14:23;;;;;;;0.17;0.17;;;13.70;99.90;;;;;;5049277;28;20029;-74
2022/12/31 02:17:21;;;;;;;0.05;0.05;;;13.20;99.90;;;;;;5049058;28;20052;-74
2022/12/31 02:19:55;;;;;;;0.20;0.20;;;13.20;99.90;;;;;;5026081;28;20112;-73
2022/12/31 02:22:32;;;;;;;0.20;0.20;;;13.00;99.90;;;;;;5049301;28;20146;-74
2022/12/31 02:25:25;;;;;;;0.63;0.20;;;12.70;99.90;;;;;;5049462;28;20167;-73
2022/12/31 02:28:11;;;;;;;0.82;0.47;;;12.60;99.90;;;;;;5048977;28;20048;-74
2022/12/31 02:30:40;;;;;;;0.22;0.20;;;12.60;99.90;;;;;;5047726;28;20035;-74
2022/12/31 02:33:34;;;;;;;2.90;0.20;;;12.30;99.90;;;;;;5049478;28;20029;-74
2022/12/31 02:36:05;;;;;;;0.10;0.10;;;12.30;99.90;;;;;;5049057;28;20181;-74
2022/12/31 02:38:37;;;;;;;0.17;0.17;;;12.30;99.90;;;;;;5049204;28;20410;-74
2022/12/31 02:41:03;;;;;;;0.20;0.20;;;12.30;99.90;;;;;;5048871;28;20032;-74
2022/12/31 02:43:29;;;;;;;0.65;0.65;;;12.10;99.90;;;;;;5047777;28;20033;-75
2022/12/31 02:46:07;;;;;;;0.52;0.10;;;;;;;;;;5048454;28;20071;-74
2022/12/31 02:48:54;;;;;;;0.20;0.20;;;12.30;99.90;;;;;;5049065;28;20039;-74
2022/12/31 02:51:54;;;;;;;0.30;0.30;;;12.20;99.90;;;;;;5048718;28;20017;-74
2022/12/31 02:54:20;;;;;;;;;;;;;;;;;;5047856;28;20065;-73
2022/12/31 02:56:58;;;;;;;0.10;0.10;;;12.00;99.90;;;;;;5048510;28;19948;-74
2022/12/31 03:02:18;;;;;;;0.13;0.13;;;;;;;;;;5048849;28;20130;-74
2022/12/31 03:04:53;;;;;;;0.28;0.20;;;11.90;99.90;;;;;;5051117;28;20090;-74
2022/12/31 03:07:30;;;;;;;0.20;0.20;;;12.10;99.90;;;;;;5049688;28;20390;-73
2022/12/31 03:09:57;;;;;;;0.40;0.40;;;11.90;99.90;;;;;;5048795;28;20025;-74
2022/12/31 03:15:18;;;;;;;0.28;0.28;;;11.90;99.90;;;;;;5051300;28;20032;-74
2022/12/31 03:18:08;;;;;;;0.10;0.10;;;11.90;99.90;;;;;;5050958;28;20504;-74
2022/12/31 03:23:34;;;;;;;0.30;0.30;;;11.80;99.90;;;;;;5052488;28;20043;-74
2022/12/31 03:26:00;;;;;;;0.20;0.20;;;11.60;99.90;;;;;;5047700;28;20032;-74
2022/12/31 03:28:29;;;;;;;1.55;0.43;;;11.70;99.90;;;;;;5047930;28;20085;-73
2022/12/31 03:30:58;;;;;;;0.10;0.10;;;13.50;99.90;;;;;;5045743;28;20021;-76
2022/12/31 03:33:24;;;;;;;2.53;0.30;;;;;;;;;;5046318;28;20025;-75
2022/12/31 03:35:51;;;;;;;0.25;0.15;;;11.60;99.90;;;;;;5048003;28;20056;-75
2022/12/31 03:38:17;;;;;;;0.32;0.30;;;11.70;99.90;;;;;;5047511;28;20057;-74
2022/12/31 03:40:47;;;;;;;0.20;0.20;;;11.50;99.90;;;;;;5047401;28;20028;-74
2022/12/31 03:43:13;;;;;;;0.20;0.20;;;11.60;99.90;;;;;;5047786;28;20485;-74
2022/12/31 03:45:40;;;;;;;0.57;0.30;;;;;;;;;;5046258;28;20124;-74
2022/12/31 03:48:07;;;;;;;0.20;0.20;;;11.70;99.90;;;;;;5049221;28;20029;-74
2022/12/31 03:50:33;;;;;;;0.20;0.20;;;11.70;99.90;;;;;;5050013;28;20032;-74
2022/12/31 03:52:59;;;;;;;0.38;0.38;;;11.50;99.90;;;;;;5050085;28;20354;-74
2022/12/31 03:55:25;;;;;;;2.00;0.20;;;11.60;99.90;;;;;;5050575;28;20426;-75
2022/12/31 03:57:51;;;;;;;2.90;0.30;;;;;;;;;;5049936;28;20044;-75
2022/12/31 04:00:20;;;;;;;0.47;0.47;;;11.00;99.90;;;;;;5049221;28;20221;-73
2022/12/31 04:02:47;;;;;;;;;;;11.60;99.90;;;;;;5049005;28;20029;-73
2022/12/31 04:05:13;;;;;;;6.03;1.05;;;11.50;99.90;;;;;;5048540;28;20289;-73
2022/12/31 04:07:40;;;;;;;1.17;0.32;;;11.60;99.90;;;;;;5046705;28;20117;-73
2022/12/31 04:10:07;;;;;;;0.13;0.13;;;11.50;99.90;;;;;;5047284;28;20036;-73
2022/12/31 04:12:33;;;;;;;0.30;0.30;;;11.50;99.90;;;;;;5049061;28;20021;-73
2022/12/31 04:14:59;;;;;;;0.28;0.28;;;;;;;;;;5048849;28;20390;-73
2022/12/31 04:17:25;;;;;;;0.60;0.22;;;11.10;99.90;;;;;;5047388;28;20446;-73
2022/12/31 04:19:51;;;;;;;2.75;0.30;;;11.20;99.90;;;;;;5047481;28;20562;-73
2022/12/31 04:22:17;;;;;;;0.20;0.20;;;;;;;;;;5045802;28;20225;-73
2022/12/31 04:24:43;;;;;;;0.20;0.20;;;;;;;;;;5047526;28;20060;-73
2022/12/31 04:27:11;;;;;;;0.38;0.20;;;11.60;99.90;;;;;;5046795;28;20478;-73
2022/12/31 04:29:37;;;;;;;5.55;0.93;;;11.10;99.90;;;;;;5045627;28;20029;-73
2022/12/31 04:32:04;;;;;;;0.32;0.32;;;10.70;99.90;;;;;;5045640;28;20140;-73
2022/12/31 04:34:29;;;;;;;0.20;0.20;;;11.00;99.90;;;;;;5047039;28;20036;-73
2022/12/31 04:36:56;;;;;;;0.40;0.10;;;10.90;99.90;;;;;;5047216;28;20033;-73
2022/12/31 04:39:22;;;;;;;0.68;0.68;;;11.00;99.90;;;;;;5046811;28;20052;-74
2022/12/31 04:41:48;;;;;;;2.72;0.88;;;;;;;;;;5046807;28;20122;-73
2022/12/31 04:44:14;;;;;;;0.95;0.30;;;10.90;99.90;;;;;;5046589;28;20087;-73
2022/12/31 04:46:39;;;;;;;0.52;0.30;;;10.90;99.90;;;;;;5047108;28;20422;-73
2022/12/31 04:49:05;;;;;;;0.52;0.30;;;10.90;99.90;;;;;;5046862;28;20518;-73
2022/12/31 04:51:31;;;;;;;0.20;0.20;;;10.80;99.90;;;;;;5047079;28;20052;-73
2022/12/31 04:53:58;;;;;;;0.65;0.40;;;;;;;;;;5047092;28;20025;-73
2022/12/31 04:56:24;;;;;;;0.20;0.20;;;10.30;99.90;;;;;;5046557;28;20029;-73
2022/12/31 04:58:50;;;;;;;0.20;0.20;;;;;;;;;;5046608;28;20422;-73
2022/12/31 05:01:16;;;;;;;0.63;0.30;;;10.30;99.90;;;;;;5046113;28;20025;-73
2022/12/31 05:03:42;;;;;;;0.28;0.28;;;10.20;99.90;;;;;;5046464;28;20029;-73
2022/12/31 05:06:11;;;;;;;0.35;0.30;;;10.10;99.90;;;;;;5046916;28;20021;-73
2022/12/31 05:08:39;;;;;;;0.30;0.30;;;10.10;99.90;;;;;;5047535;28;20036;-73
2022/12/31 05:11:05;;;;;;;1.55;0.60;;;;;;;;;;5046664;28;20441;-73
2022/12/31 05:13:30;;;;;;;0.70;0.40;;;10.10;99.90;;;;;;5046684;28;20033;-73
2022/12/31 05:15:56;;;;;;;0.40;0.40;;;10.10;99.90;;;;;;5046386;28;20055;-73
2022/12/31 05:18:22;;;;;;;0.32;0.30;;;;;;;;;;5046378;28;20159;-73
2022/12/31 05:20:49;;;;;;;1.45;0.90;;;10.00;99.90;;;;;;5046800;28;20545;-74
2022/12/31 05:23:16;;;;;;;0.38;0.38;;;;;;;;;;5046302;28;20410;-73
2022/12/31 05:25:44;;;;;;;0.20;0.20;;;9.90;99.90;;;;;;5046498;28;20033;-73
2022/12/31 05:28:10;;;;;;;0.50;0.40;;;10.00;99.90;;;;;;5046464;28;20029;-73
2022/12/31 05:30:36;;;;;;;0.50;0.50;;;9.90;99.90;;;;;;5046089;28;20036;-73
2022/12/31 05:33:02;;;;;;;0.93;0.20;;;;;;;;;;5046467;28;20036;-73
2022/12/31 05:35:28;;;;;;;0.30;0.30;;;9.80;99.90;;;;;;5046662;28;20029;-73
2022/12/31 05:37:53;;;;;;;7.43;0.45;;;9.90;99.90;;;;;;5046337;28;20035;-73
2022/12/31 05:40:19;;;;;;;0.20;0.20;;;9.80;99.90;;;;;;5047056;28;20082;-74
2022/12/31 05:42:45;;;;;;;0.20;0.20;;;9.80;99.90;;;;;;5046778;28;20087;-73
2022/12/31 05:45:12;;;;;;;0.73;0.32;;;9.80;99.90;;;;;;5047191;28;20025;-73
2022/12/31 05:47:39;;;;;;;8.35;0.50;;;9.90;99.90;;;;;;5046538;28;20033;-73
2022/12/31 05:50:06;;;;;;;1.33;1.23;;;;;;;;;;5047376;28;20025;-73
2022/12/31 05:52:34;;;;;;;0.30;0.30;;;9.90;99.90;;;;;;5046613;28;20036;-73
2022/12/31 05:55:00;;;;;;;5.97;0.65;;;;;;;;;;5046089;28;20037;-74
2022/12/31 05:57:25;;;;;;;0.50;0.50;;;9.80;99.90;;;;;;5045987;28;20033;-73
2022/12/31 05:59:52;;;;;;;0.30;0.30;;;10.00;99.90;;;;;;5045810;28;20078;-73
2022/12/31 06:02:18;;;;;;;1.02;0.30;;;;;;;;;;5046146;28;20031;-73
2022/12/31 06:04:44;;;;;;;0.20;0.20;;;;;;;;;;5050256;28;20401;-73
2022/12/31 06:07:10;;;;;;;0.30;0.30;;;;;;;;;;5049716;28;20587;-73
2022/12/31 06:09:36;;;;;;;0.20;0.20;;;10.10;99.90;;;;;;5050063;28;20297;-73
2022/12/31 06:12:03;;;;;;;0.20;0.20;;;10.20;99.90;;;;;;5049448;28;20021;-73
2022/12/31 06:14:29;;;;;;;0.20;0.20;;;;;;;;;;5049168;28;20391;-73
2022/12/31 06:16:54;;;;;;;0.30;0.30;;;10.50;99.90;;;;;;5049796;28;20041;-73
2022/12/31 06:19:20;;;;;;;0.10;0.10;;;10.20;99.90;;;;;;5049535;28;20370;-74
2022/12/31 06:21:46;;;;;;;0.25;0.20;;;10.10;99.90;;;;;;5049667;28;20029;-73
2022/12/31 06:24:12;;;;;;;0.20;0.20;;;10.10;99.90;;;;;;5049885;28;20024;-73
2022/12/31 06:26:37;;;;;;;0.25;0.25;;;10.00;99.90;;;;;;5049222;28;20036;-73
2022/12/31 06:29:03;;;;;;;1.00;0.88;;;10.50;99.90;;;;;;5048875;28;20071;-73
2022/12/31 06:31:29;;;;;;;0.30;0.30;;;;;;;;;;5049602;28;20037;-73
2022/12/31 06:33:55;;;;;;;0.20;0.20;;;;;;;;;;5049186;28;20017;-73
2022/12/31 06:36:21;;;;;;;0.50;0.50;;;9.90;99.90;;;;;;5049569;28;20029;-73
2022/12/31 06:38:47;;;;;;;0.40;0.40;;;;;;;;;;5048955;28;20437;-73
2022/12/31 06:41:15;;;;;;;0.75;0.40;;;9.90;99.90;;;;;;5049445;28;20029;-73
2022/12/31 06:43:41;;;;;;;0.57;0.57;;;10.00;99.90;;;;;;5049010;28;20505;-73
2022/12/31 06:46:10;;;;;;;0.45;0.43;;;9.60;99.90;;;;;;5048778;28;20028;-73
2022/12/31 06:48:36;;;;;;;0.30;0.30;;;9.80;99.90;;;;;;5049139;28;20489;-73
2022/12/31 06:51:04;;;;;;;0.28;0.28;;;;;;;;;;5049169;28;20035;-73
2022/12/31 06:53:30;;;;;;;2.25;0.40;;;;;;;;;;5049002;28;20029;-73
2022/12/31 06:55:56;;;;;;;0.65;0.20;;;9.20;99.90;;;;;;5048662;28;20108;-73
2022/12/31 06:58:22;;;;;;;1.48;0.20;;;;;;;;;;5048773;28;20108;-73
2022/12/31 07:00:57;;;;;;;0.40;0.40;;;9.20;99.90;;;;;;5047635;28;20021;-73
2022/12/31 07:03:37;;;;;;;0.22;0.20;;;9.30;99.90;;;;;;5048681;28;20053;-73
2022/12/31 07:06:09;;;;;;;0.32;0.32;;;9.40;99.90;;;;;;5048750;28;20493;-73
2022/12/31 07:08:56;;;;;;;0.50;0.40;;;9.20;99.90;;;;;;5048765;28;20283;-74
2022/12/31 07:11:27;;;;;;;5.43;0.55;;;8.40;99.90;;;;;;5048552;28;20479;-73
2022/12/31 07:13:59;;;;;;;2.33;0.40;;;;;;;;;;5047873;28;20024;-73
2022/12/31 07:16:25;;;;;;;0.10;0.10;;;;;;;;;;5048198;28;20059;-73
2022/12/31 07:19:09;;;;;;;0.57;0.20;;;8.80;99.90;;;;;;5048355;28;20513;-73
2022/12/31 07:21:38;;;;;;;2.40;0.28;;;8.80;99.90;;;;;;5048443;28;20056;-73
2022/12/31 07:24:06;;;;;;;0.20;0.20;;;9.30;99.90;;;;;;5048262;28;20025;-73
2022/12/31 07:26:50;;;;;;;0.30;0.30;;;8.80;99.90;;;;;;5048147;28;20029;-73
2022/12/31 07:29:28;;;;;;;0.32;0.30;;;8.60;99.90;;;;;;5048036;28;20123;-73
2022/12/31 07:32:03;;;;;;;5.88;0.60;;;8.80;99.90;;;;;;5048195;28;20382;-73
2022/12/31 07:34:29;;;;;;;0.35;0.35;;;;;;;;;;5048400;28;20017;-73
2022/12/31 07:37:00;;;;;;;0.20;0.20;;;8.70;99.90;;;;;;5048136;28;20095;-73
2022/12/31 07:39:43;;;;;;;0.28;0.28;;;8.80;99.90;;;;;;5047663;28;20801;-73
2022/12/31 07:42:35;;;;;;;0.10;0.10;;;8.60;99.90;;;;;;5047965;28;20021;-73
2022/12/31 07:45:45;;;;;;;0.60;0.60;;;8.50;99.90;;;;;;5047323;28;20321;-73
2022/12/31 07:48:29;;;;;;;1.70;1.42;;;10.00;99.90;;;;;;4989083;28;20490;-73
2022/12/31 07:50:56;;;;;;;2.25;1.77;;;8.40;99.90;;;;;;5006207;28;20066;-73
2022/12/31 07:53:23;;;;;;;0.60;0.60;;;8.50;99.90;;;;;;5022043;28;20067;-73
2022/12/31 07:55:58;;;;;;;0.20;0.20;;;8.30;99.90;;;;;;5048039;28;20036;-73
2022/12/31 07:58:46;;;;;;;0.20;0.20;;;8.80;99.90;;;;;;5027914;28;20110;-73
2022/12/31 08:01:15;;;;;;;1.17;0.73;;;8.60;99.90;;;;;;5027546;28;20080;-73
2022/12/31 08:04:02;;;;;;;0.50;0.50;;;9.10;99.90;;;;;;5027528;28;20029;-74
2022/12/31 08:07:02;;;;;;;0.80;0.45;;;8.70;99.90;;;;;;5027582;28;20033;-73
2022/12/31 08:09:36;;;;;;;6.13;2.28;;;8.50;99.90;;;;;;5027610;28;20022;-73
2022/12/31 08:12:02;;;;;;;7.50;1.27;;;8.60;99.90;;;;;;5027497;28;20461;-73
2022/12/31 08:14:29;;;;;;;2.65;2.30;;;8.50;99.90;;;;;;5027177;28;20105;-73
2022/12/31 08:16:56;;;;;;;5.13;4.63;;;8.30;99.90;;;;;;5027304;28;20073;-74
2022/12/31 08:19:29;;;;;;;1.50;1.02;;;8.60;99.90;;;;;;5027818;28;20025;-74
2022/12/31 08:21:55;;;;;;;2.60;2.40;;;;;;;;;;5027211;28;20473;-75
2022/12/31 08:24:50;;;;;;;1.08;1.08;;;7.90;99.90;;;;;;5027625;28;20021;-74
2022/12/31 08:27:34;;;;;;;0.75;0.43;;;8.90;99.90;;;;;;5026725;28;20028;-74
2022/12/31 08:30:14;;;;;;;0.20;0.20;;;9.00;99.90;;;;;;5026838;28;20155;-75
2022/12/31 08:32:49;;;;;;;0.57;0.57;;;;;;;;;;5027646;28;20096;-75
2022/12/31 08:35:33;;;;;;;3.33;0.40;;;;;;;;;;5026948;28;20403;-74
2022/12/31 08:38:22;;;;;;;0.20;0.20;;;9.00;99.90;;;;;;5026707;28;20451;-74
2022/12/31 08:40:58;;;;;;;0.63;0.63;;;9.20;99.90;;;;;;5036274;28;20025;-74
2022/12/31 08:43:57;;;;;;;0.47;0.40;;;9.10;99.90;;;;;;5047180;28;20028;-74
2022/12/31 08:46:46;;;;;;;0.35;0.35;;;9.30;99.90;;;;;;5045935;28;20044;-74
2022/12/31 08:49:13;;;;;;;0.10;0.10;;;9.20;99.90;;;;;;5047573;28;20039;-74
2022/12/31 08:51:40;;;;;;;0.25;0.25;;;;;;;;;;5046742;28;20350;-74
2022/12/31 08:54:11;;;;;;;0.20;0.20;;;9.90;99.90;;;;;;5048580;28;20021;-74
2022/12/31 08:56:57;;;;;;;0.10;0.10;;;10.20;99.90;;;;;;5047230;28;20094;-74
2022/12/31 08:59:32;;;;;;;0.22;0.22;;;10.30;99.90;;;;;;5046485;28;20091;-74
2022/12/31 09:02:22;;;;;;;0.40;0.35;;;10.30;99.90;;;;;;5047179;28;20052;-74
2022/12/31 09:05:19;;;;;;;0.93;0.70;;;10.60;99.90;;;;;;5049666;28;20229;-74
2022/12/31 09:08:02;;;;;;;4.18;2.22;;;10.40;99.90;;;;;;5049265;28;20545;-74
2022/12/31 09:10:59;;;;;;;12.73;5.93;;;10.50;99.90;;;;;;5041963;28;20040;-74
2022/12/31 09:13:45;;;;;;;11.48;5.85;;;10.50;99.90;;;;;;5014718;28;20303;-75
2022/12/31 09:16:34;;;;;;;10.25;5.28;;;10.60;99.90;;;;;;5045216;28;20040;-74
2022/12/31 09:19:00;;;;;;;16.17;5.80;;;10.50;99.90;;;;;;5048032;28;20033;-74
2022/12/31 09:21:26;;;;;;;13.27;6.53;;;;;;;;;;5057660;28;20209;-74
2022/12/31 09:23:52;;;;;;;19.75;8.50;;;10.90;99.90;;;;;;5049544;28;20025;-75
2022/12/31 09:26:32;;;;;;;11.57;5.82;;;11.30;99.90;;;;;;5044105;28;20031;-74
2022/12/31 09:29:10;;;;;;;9.65;4.80;;;11.30;99.90;;;;;;5044754;28;20041;-74
2022/12/31 09:31:47;;;;;;;4.95;3.03;;;11.30;99.90;;;;;;5050031;28;20029;-75
2022/12/31 09:34:44;;;;;;;6.45;3.60;;;11.60;99.90;;;;;;5050196;28;20024;-73
2022/12/31 09:37:20;;;;;;;9.60;4.47;;;11.70;99.90;;;;;;5047516;28;20037;-74
2022/12/31 09:39:47;;;;;;;9.95;4.82;;;11.70;99.90;;;;;;5054503;28;20268;-73
2022/12/31 09:42:40;;;;;;;9.48;3.88;;;11.80;99.90;;;;;;5049975;28;20104;-74
2022/12/31 09:45:24;;;;;;;6.68;3.83;;;11.90;99.90;;;;;;5049232;28;20049;-74
2022/12/31 09:48:14;;;;;;;2.25;1.98;;;12.00;99.90;;;;;;5058055;28;20127;-74
2022/12/31 09:50:51;;;;;;;;;;;12.30;99.90;;;;;;5048135;28;20100;-74
2022/12/31 09:53:39;;;;;;;4.35;2.80;;;12.30;99.90;;;;;;5055168;28;19955;-74
2022/12/31 09:56:08;;;;;;;6.18;2.20;;;12.20;99.90;;;;;;5045487;28;20039;-74
2022/12/31 09:59:05;;;;;;;8.40;3.85;;;12.20;99.90;;;;;;5052882;28;20047;-74
2022/12/31 10:01:33;;;;;;;3.55;2.53;;;12.40;99.90;;;;;;5052288;28;20031;-73
2022/12/31 10:04:32;;;;;;;9.00;1.77;;;12.40;99.90;;;;;;5052921;28;20025;-74
2022/12/31 10:07:42;;;;;;;5.27;2.73;;;12.50;99.90;;;;;;5055395;28;20032;-73
2022/12/31 10:10:21;;;;;;;2.85;1.50;;;12.60;99.90;;;;;;5016158;28;20037;-74
2022/12/31 10:13:19;;;;;;;4.43;1.65;;;12.80;99.90;;;;;;5052692;28;20025;-74
2022/12/31 10:16:23;;;;;;;3.92;2.83;;;12.80;99.90;;;;;;5050937;28;20508;-74
2022/12/31 10:18:51;;;;;;;1.35;1.27;;;13.20;99.90;;;;;;5053060;28;20029;-73
2022/12/31 10:21:44;;;;;;;2.97;1.20;;;13.00;99.90;;;;;;5051722;28;20028;-73
2022/12/31 10:24:31;;;;;;;4.28;2.05;;;14.20;99.90;;;;;;5057426;28;20055;-73
2022/12/31 10:27:25;;;;;;;2.70;1.40;;;13.20;99.90;;;;;;5054248;28;20017;-74
2022/12/31 10:29:59;;;;;;;2.53;1.70;;;13.40;99.90;;;;;;5053628;28;20341;-74
2022/12/31 10:33:02;;;;;;;3.72;2.88;;;13.50;99.90;;;;;;5060952;28;20033;-73
2022/12/31 10:35:52;;;;;;;11.88;7.15;;;13.90;99.90;;;;;;5028193;28;20467;-74
2022/12/31 10:38:44;;;;;;;6.20;4.07;;;14.00;99.90;;;;;;5054627;28;20052;-74
2022/12/31 10:41:26;;;;;;;4.88;3.20;;;14.20;99.90;;;;;;5015866;28;20274;-73
2022/12/31 10:44:23;;;;;;;5.85;3.88;;;14.20;99.90;;;;;;5055609;28;20021;-73
2022/12/31 10:47:22;;;;;;;2.55;1.35;;;14.40;99.90;;;;;;5047146;28;20036;-73
2022/12/31 10:49:48;;;;;;;1.45;0.90;;;;;;;;;;5052077;28;20218;-74
2022/12/31 10:52:40;;;;;;;1.30;0.88;;;14.60;99.90;;;;;;5060861;28;20340;-74
2022/12/31 10:55:23;;;;;;;6.60;1.40;;;14.50;99.90;;;;;;5058442;28;20035;-74
2022/12/31 10:58:28;;;;;;;4.25;0.60;;;15.00;99.90;;;;;;5055311;28;20083;-73
2022/12/31 11:01:16;;;;;;;3.28;0.80;;;14.90;99.90;;;;;;5047154;28;20041;-73
2022/12/31 11:04:00;;;;;;;2.50;1.73;;;14.90;99.90;;;;;;5055869;28;20079;-73
2022/12/31 11:07:04;;;;;;;1.77;1.02;;;14.90;99.90;;;;;;5065070;28;20546;-73
2022/12/31 11:09:59;;;;;;;2.20;1.48;;;15.10;99.90;;;;;;5049788;28;20032;-74
2022/12/31 11:12:51;;;;;;;1.02;0.90;;;14.90;99.90;;;;;;5049422;28;20075;-74
2022/12/31 11:15:20;;;;;;;2.97;1.48;;;14.80;99.90;;;;;;5046199;28;20035;-73
2022/12/31 11:18:33;;;;;;;1.23;1.03;;;14.90;99.90;;;;;;5048955;28;20137;-74
2022/12/31 11:21:12;;;;;;;2.15;0.95;;;15.20;99.90;;;;;;5051110;28;20055;-74
2022/12/31 11:23:44;;;;;;;2.53;1.17;;;15.10;99.90;;;;;;5058244;28;20077;-73
2022/12/31 11:26:09;;;;;;;3.15;1.15;;;;;;;;;;5039908;28;20025;-73
2022/12/31 11:28:35;;;;;;;4.97;2.17;;;15.00;99.90;;;;;;5038798;28;20024;-74
2022/12/31 11:31:27;;;;;;;2.45;1.10;;;15.10;99.90;;;;;;5040985;28;20429;-74
2022/12/31 11:33:59;;;;;;;2.95;1.38;;;;;;;;;;5050007;28;20098;-74
2022/12/31 11:36:54;;;;;;;1.67;1.48;;;15.30;99.90;;;;;;5051772;28;20017;-74
2022/12/31 11:39:27;;;;;;;1.70;1.27;;;15.50;99.90;;;;;;5051574;28;20059;-73
2022/12/31 11:42:27;;;;;;;1.60;1.00;;;15.80;99.90;;;;;;5050305;28;20021;-74
2022/12/31 11:45:00;;;;;;;3.17;2.20;;;15.90;99.90;;;;;;5024656;28;20094;-74
2022/12/31 11:47:31;;;;;;;2.70;2.30;;;15.80;99.90;;;;;;5046258;28;20021;-75
2022/12/31 11:50:14;;;;;;;1.63;1.35;;;15.90;99.90;;;;;;5050568;28;20024;-74
2022/12/31 11:52:51;;;;;;;2.03;1.42;;;16.00;99.90;;;;;;5049772;28;20017;-74
2022/12/31 11:55:37;;;;;;;1.35;0.90;;;16.20;99.90;;;;;;5049248;28;20112;-74
2022/12/31 11:58:15;;;;;;;1.50;1.40;;;16.30;99.90;;;;;;5046856;28;20433;-74
2022/12/31 12:00:50;;;;;;;1.85;0.80;;;16.10;99.90;;;;;;5042859;28;20474;-73
2022/12/31 12:03:16;;;;;;;1.10;1.10;;;16.20;99.90;;;;;;5038034;28;20030;-74
2022/12/31 12:05:42;;;;;;;2.70;1.38;;;;;;;;;;5049369;28;20021;-73
2022/12/31 12:08:08;;;;;;;4.75;0.88;;;16.50;99.90;;;;;;5049212;28;20025;-73
2022/12/31 12:10:49;;;;;;;1.55;0.85;;;16.50;99.90;;;;;;5048946;28;20035;-74
2022/12/31 12:13:24;;;;;;;0.90;0.90;;;16.60;99.90;;;;;;5048885;28;20052;-73
2022/12/31 12:15:53;;;;;;;1.85;1.02;;;16.40;99.90;;;;;;5050260;28;20580;-74
2022/12/31 12:18:25;;;;;;;;;;;16.30;99.90;;;;;;5050349;28;20037;-74
2022/12/31 12:20:51;;;;;;;3.10;1.73;;;16.30;99.90;;;;;;5050157;28;20003;-74
2022/12/31 12:23:25;;;;;;;0.93;0.80;;;16.30;99.90;;;;;;5050145;28;20421;-73
2022/12/31 12:25:53;;;;;;;2.08;0.90;;;16.40;99.90;;;;;;5050138;28;20048;-74
2022/12/31 12:28:23;;;;;;;1.95;1.05;;;16.60;99.90;;;;;;5051965;28;20098;-74
2022/12/31 12:31:20;;;;;;;0.80;0.80;;;16.40;99.90;;;;;;5066146;28;20025;-74
2022/12/31 12:33:47;;;;;;;3.17;1.55;;;16.60;99.90;;;;;;5049702;28;20151;-73
2022/12/31 12:36:15;;;;;;;0.73;0.73;;;17.20;99.90;;;;;;5049211;28;20029;-75
2022/12/31 12:38:41;;;;;;;0.98;0.45;;;16.50;99.90;;;;;;5048546;28;20128;-73
2022/12/31 12:41:23;;;;;;;3.35;1.35;;;17.50;99.90;;;;;;5049125;28;20037;-75
2022/12/31 12:44:13;;;;;;;1.48;1.15;;;16.70;99.90;;;;;;5048424;28;20024;-75
2022/12/31 12:46:46;;;;;;;1.20;1.10;;;16.90;99.90;;;;;;5048451;28;20272;-73
2022/12/31 12:49:31;;;;;;;2.00;1.58;;;16.90;99.90;;;;;;5048746;28;20021;-74
2022/12/31 12:52:22;;;;;;;1.48;1.23;;;16.90;99.90;;;;;;5049733;28;20037;-74
2022/12/31 12:54:58;;;;;;;4.03;0.80;;;16.80;99.90;;;;;;5048500;28;20029;-73
2022/12/31 12:57:38;;;;;;;2.55;1.42;;;16.70;99.90;;;;;;5049754;28;20025;-74
2022/12/31 13:00:23;;;;;;;3.88;1.17;;;16.40;99.90;;;;;;5049815;28;20025;-73
2022/12/31 13:03:23;;;;;;;1.05;0.95;;;16.40;99.90;;;;;;5048574;28;20342;-73
2022/12/31 13:06:13;;;;;;;12.27;5.68;;;16.50;99.90;;;;;;5049716;28;20053;-74
2022/12/31 13:08:57;;;;;;;1.38;1.27;;;16.40;99.90;;;;;;5048260;28;20025;-74
2022/12/31 13:11:39;;;;;;;1.15;0.70;;;16.60;99.90;;;;;;5048174;28;20474;-74
2022/12/31 13:14:38;;;;;;;1.30;0.70;;;16.40;99.90;;;;;;5052610;28;20090;-74
2022/12/31 13:17:32;;;;;;;1.65;1.33;;;16.50;99.90;;;;;;5052165;28;20040;-74
2022/12/31 13:20:21;;;;;;;2.10;1.05;;;16.20;99.90;;;;;;5052402;28;20035;-74
2022/12/31 13:22:51;;;;;;;3.85;2.10;;;16.40;99.90;;;;;;5053595;28;20280;-74
2022/12/31 13:25:27;;;;;;;;;;;16.50;99.90;;;;;;5053963;28;20036;-74
2022/12/31 13:27:59;;;;;;;13.98;5.07;;;16.50;99.90;;;;;;5053529;28;19908;-74
2022/12/31 13:30:28;;;;;;;18.75;4.90;;;;;;;;;;5052102;28;20406;-74
2022/12/31 13:33:02;;;;;;;1.75;1.42;;;16.30;99.90;;;;;;5064223;28;20113;-74
2022/12/31 13:35:58;;;;;;;1.45;1.35;;;16.30;99.90;;;;;;5063031;28;20096;-73
2022/12/31 13:38:48;;;;;;;1.80;1.15;;;16.30;99.90;;;;;;5062983;28;20045;-74
2022/12/31 13:41:16;;;;;;;;;;;16.20;99.90;;;;;;5062544;28;20028;-74
2022/12/31 13:43:49;;;;;;;1.37;1.27;;;16.00;99.90;;;;;;5059021;28;19939;-74
2022/12/31 13:46:33;;;;;;;2.28;1.00;;;;;;;;;;5062591;28;20025;-74
2022/12/31 13:49:11;;;;;;;2.67;0.68;;;15.90;99.90;;;;;;5060621;28;20109;-74
2022/12/31 13:52:31;;;;;;;1.13;0.65;;;15.80;99.90;;;;;;5055090;28;20029;-74
2022/12/31 13:55:08;;;;;;;1.83;0.85;;;15.70;99.90;;;;;;5015760;28;20033;-73